Weather at Al Ranch Airfield

Public forecast

Using degrees Celsius for public forecast. Weather courtesy of forecast.io.

Closest aviation weather report (METAR) to Al Ranch Airfield

Closest report is Udine-Rivolto Air Base, 3.4 nm (6.2 km) N.

2024/07/16 19:55 (retrieved 42 minutes ago)

LIPI 161955Z 20003KT CAVOK 26/21 Q1011

Closest aviation forecast (TAF) to Al Ranch Airfield

Closest forecast is Trieste–Friuli Venezia Giulia Airport, 19.1 nm (35.4 km) ESE.

2024/07/16 18:20 (retrieved 2 hours ago)

TAF LIPQ 161700Z 1618/1718 VRB05KT CAVOK BECMG 1704/1706 09012KT BECMG 1710/1712 VRB05KT